Time;durP1;ratioP1;P1;durP2;ratioP2;P2;SDS_P1;SDS_P2;PMS_P1;PMS_P2;Temp;Humidity;BMP_temperature;BMP_pressure;BME280_temperature;BME280_humidity;BME280_pressure;Samples;Min_cycle;Max_cycle;Signal;HPM_P1;HPM_P2
2021/04/17 00:02:09;;;;;;;3.50;2.20;;;;;;;8.38;48.90;101540.41;5071669;28;20497;-66
2021/04/17 00:04:38;;;;;;;3.05;2.10;;;;;;;8.18;49.26;101543.66;5089631;28;20030;-67
2021/04/17 00:07:04;;;;;;;3.10;2.47;;;;;;;8.06;49.37;101539.97;5072373;28;20119;-66
2021/04/17 00:09:30;;;;;;;3.70;2.92;;;;;;;8.15;49.44;101544.50;5072337;28;20522;-66
2021/04/17 00:11:58;;;;;;;2.25;2.08;;;;;;;7.96;50.68;101533.69;5072081;28;20047;-66
2021/04/17 00:14:27;;;;;;;2.45;2.22;;;;;;;7.68;51.57;101545.50;5072525;28;20103;-67
2021/04/17 00:16:54;;;;;;;4.50;2.38;;;;;;;7.51;50.97;101540.84;5072460;28;20495;-66
2021/04/17 00:19:20;;;;;;;3.00;2.25;;;;;;;7.26;53.75;101544.75;5073386;28;20064;-67
2021/04/17 00:21:45;;;;;;;2.78;2.22;;;;;;;7.38;53.32;101530.97;5071712;28;20051;-66
2021/04/17 00:24:10;;;;;;;1.98;1.88;;;;;;;7.26;52.35;101529.88;5072122;28;20020;-66
2021/04/17 00:26:35;;;;;;;2.83;2.45;;;;;;;7.15;53.25;101536.69;5072308;28;20408;-67
2021/04/17 00:29:02;;;;;;;2.35;2.15;;;;;;;7.38;52.89;101529.25;5072115;28;20440;-66
2021/04/17 00:31:28;;;;;;;2.95;2.00;;;;;;;7.50;53.07;101515.44;5071841;28;20027;-65
2021/04/17 00:33:53;;;;;;;3.35;2.28;;;;;;;7.28;52.80;101519.44;5073445;28;20109;-66
2021/04/17 00:36:19;;;;;;;2.20;2.00;;;;;;;8.02;51.58;101522.41;5071447;28;20024;-66
2021/04/17 00:38:44;;;;;;;2.28;2.03;;;;;;;7.51;51.96;101527.72;5071952;28;20063;-67
2021/04/17 00:41:09;;;;;;;2.72;2.05;;;;;;;7.28;52.52;101515.06;5070415;28;20028;-66
2021/04/17 00:43:35;;;;;;;2.53;2.22;;;;;;;7.13;52.64;101525.25;5071848;28;20071;-65
2021/04/17 00:46:00;;;;;;;2.42;2.22;;;;;;;7.31;51.38;101514.25;5072599;28;20039;-66
2021/04/17 00:48:25;;;;;;;3.60;2.38;;;;;;;7.22;52.14;101520.19;5072699;28;20020;-66
2021/04/17 00:50:51;;;;;;;4.00;3.15;;;;;;;7.44;52.47;101517.97;5070999;28;20039;-66
2021/04/17 00:53:16;;;;;;;2.38;2.17;;;;;;;7.32;51.69;101518.63;5073098;28;20039;-66
2021/04/17 00:55:42;;;;;;;5.20;2.67;;;;;;;6.69;53.28;101521.78;5071305;28;20043;-66
2021/04/17 00:58:07;;;;;;;3.92;2.70;;;;;;;6.90;53.91;101513.47;5054863;28;20028;-68
2021/04/17 01:00:35;;;;;;;5.00;2.90;;;;;;;7.08;53.28;101509.44;5071285;28;20056;-66
2021/04/17 01:03:11;;;;;;;3.75;2.90;;;;;;;7.27;52.35;101510.66;5071390;28;20106;-67
2021/04/17 01:05:38;;;;;;;3.63;2.83;;;;;;;7.75;51.13;101502.72;5072445;28;20059;-67
2021/04/17 01:08:05;;;;;;;3.30;2.95;;;;;;;7.18;52.34;101513.13;5071360;28;20028;-66
2021/04/17 01:10:47;;;;;;;4.40;2.88;;;;;;;7.15;52.95;101510.44;5070923;28;20044;-66
2021/04/17 01:13:13;;;;;;;3.55;2.70;;;;;;;7.44;50.91;101508.34;5071505;28;20529;-66
2021/04/17 01:15:39;;;;;;;4.70;3.58;;;;;;;7.46;51.16;101508.38;5070994;28;20025;-66
2021/04/17 01:18:05;;;;;;;5.20;3.08;;;;;;;7.25;52.21;101522.00;5071104;28;20223;-66
2021/04/17 01:20:39;;;;;;;3.10;2.88;;;;;;;7.69;51.26;101498.25;5072447;28;20021;-66
2021/04/17 01:23:13;;;;;;;3.78;3.42;;;;;;;7.23;52.38;101508.84;5072306;28;20028;-66
2021/04/17 01:25:46;;;;;;;8.57;3.58;;;;;;;7.72;50.12;101510.56;5072177;28;20037;-66
2021/04/17 01:28:11;;;;;;;4.75;2.85;;;;;;;7.92;49.42;101509.97;5051170;28;20411;-66
2021/04/17 01:30:36;;;;;;;4.75;3.50;;;;;;;8.16;49.41;101513.81;5051493;28;20032;-66
2021/04/17 01:33:02;;;;;;;3.40;2.85;;;;;;;8.16;50.79;101513.81;5070438;28;20387;-66
2021/04/17 01:35:28;;;;;;;4.35;3.10;;;;;;;8.23;49.99;101513.06;5072085;28;20012;-66
2021/04/17 01:37:53;;;;;;;4.93;2.80;;;;;;;7.68;51.06;101506.97;5053601;28;20484;-67
2021/04/17 01:40:25;;;;;;;5.80;3.87;;;;;;;7.80;51.33;101505.41;5071520;28;20033;-67
2021/04/17 01:42:51;;;;;;;4.53;3.00;;;;;;;7.87;50.73;101507.28;5071665;28;20029;-67
2021/04/17 01:45:19;;;;;;;5.32;3.03;;;;;;;7.79;50.68;101499.28;5070487;28;20046;-66
2021/04/17 01:47:47;;;;;;;5.75;2.97;;;;;;;8.01;51.21;101509.25;5071610;28;20450;-65
2021/04/17 01:50:14;;;;;;;3.72;3.15;;;;;;;8.19;50.75;101503.34;5053486;28;20059;-66
2021/04/17 01:52:39;;;;;;;3.60;2.92;;;;;;;7.57;51.69;101498.06;5069954;28;20030;-66
2021/04/17 01:55:06;;;;;;;3.90;3.42;;;;;;;7.83;51.30;101500.19;5070844;28;20024;-66
2021/04/17 01:57:31;;;;;;;3.67;3.38;;;;;;;7.90;51.20;101503.84;5071484;28;20032;-66
2021/04/17 01:59:57;;;;;;;3.55;3.00;;;;;;;7.76;50.68;101493.97;5070962;28;20032;-66
2021/04/17 02:02:22;;;;;;;3.30;3.00;;;;;;;8.18;50.55;101504.22;5070266;28;20443;-67
2021/04/17 02:04:48;;;;;;;4.75;3.45;;;;;;;7.73;50.98;101504.44;5071700;28;20035;-66
2021/04/17 02:07:13;;;;;;;4.80;3.90;;;;;;;7.44;53.29;101510.09;5071868;28;20524;-66
2021/04/17 02:09:39;;;;;;;4.10;3.70;;;;;;;8.01;51.29;101493.47;5070427;28;20380;-67
2021/04/17 02:12:04;;;;;;;6.00;4.03;;;;;;;7.92;50.87;101499.47;5070964;28;20032;-65
2021/04/17 02:14:30;;;;;;;7.43;3.90;;;;;;;8.03;51.37;101507.50;5071675;28;20055;-66
2021/04/17 02:17:02;;;;;;;6.30;4.25;;;;;;;8.26;50.92;101507.84;5071232;28;20016;-66
2021/04/17 02:19:52;;;;;;;7.25;3.95;;;;;;;7.99;51.37;101510.94;5070420;28;20032;-66
2021/04/17 02:22:17;;;;;;;4.38;3.67;;;;;;;8.63;50.12;101498.72;5070081;28;20052;-66
2021/04/17 02:24:43;;;;;;;4.70;3.60;;;;;;;8.56;49.52;101498.63;5070121;28;20066;-67
2021/04/17 02:27:09;;;;;;;4.43;3.30;;;;;;;8.33;50.53;101512.31;5070008;28;20059;-67
2021/04/17 02:29:34;;;;;;;7.07;3.95;;;;;;;8.10;51.04;101506.72;5071784;28;20032;-67
2021/04/17 02:32:00;;;;;;;8.45;4.40;;;;;;;8.25;50.75;101513.06;5069840;28;20043;-66
2021/04/17 02:34:26;;;;;;;4.63;3.90;;;;;;;8.51;50.05;101516.09;5070891;28;20476;-67
2021/04/17 02:36:51;;;;;;;6.93;4.47;;;;;;;8.42;50.72;101514.22;5069974;28;20025;-67
2021/04/17 02:39:16;;;;;;;6.30;3.65;;;;;;;7.94;51.88;101513.53;5070130;28;20719;-67
2021/04/17 02:41:42;;;;;;;4.53;3.53;;;;;;;7.58;53.60;101511.19;5069947;28;20078;-66
2021/04/17 02:44:07;;;;;;;5.38;4.72;;;;;;;7.97;52.25;101505.66;5070951;28;20059;-67
2021/04/17 02:46:33;;;;;;;7.75;4.00;;;;;;;7.68;52.82;101516.63;5051660;28;20416;-67
2021/04/17 02:48:58;;;;;;;5.90;4.20;;;;;;;7.82;53.07;101509.84;5070124;28;20013;-67
2021/04/17 02:51:23;;;;;;;6.55;3.90;;;;;;;8.22;52.69;101513.91;5069836;28;20024;-66
2021/04/17 02:53:49;;;;;;;3.92;3.63;;;;;;;8.18;52.92;101506.84;5071917;28;20036;-68
2021/04/17 02:56:15;;;;;;;4.82;4.00;;;;;;;8.21;52.34;101517.41;5070647;28;20040;-68
2021/04/17 02:58:40;;;;;;;5.93;3.97;;;;;;;8.73;50.79;101513.72;5071106;28;20035;-68
2021/04/17 03:01:06;;;;;;;4.18;3.72;;;;;;;8.39;51.33;101513.25;5070563;28;20017;-68
2021/04/17 03:03:31;;;;;;;4.57;3.88;;;;;;;8.19;51.58;101513.88;5072414;28;20028;-68
2021/04/17 03:05:56;;;;;;;4.85;3.80;;;;;;;8.04;53.54;101520.66;5073990;28;20024;-68
2021/04/17 03:08:22;;;;;;;5.68;3.85;;;;;;;7.95;54.42;101516.19;5073663;28;20028;-68
2021/04/17 03:10:47;;;;;;;6.47;4.95;;;;;;;7.98;55.14;101515.34;5072587;28;20017;-67
2021/04/17 03:13:13;;;;;;;6.20;4.22;;;;;;;8.04;54.88;101510.16;5074809;28;20031;-68
2021/04/17 03:15:39;;;;;;;5.50;4.20;;;;;;;7.93;55.06;101506.47;5074396;28;20031;-68
2021/04/17 03:18:04;;;;;;;5.00;4.07;;;;;;;7.73;56.22;101511.44;5073026;28;20028;-68
2021/04/17 03:20:30;;;;;;;4.72;3.63;;;;;;;7.66;56.98;101507.81;5074510;28;20031;-68
2021/04/17 03:22:55;;;;;;;4.00;3.60;;;;;;;7.27;59.04;101515.91;5074527;28;20455;-67
2021/04/17 03:25:20;;;;;;;6.45;4.32;;;;;;;7.57;58.62;101519.06;5073622;28;20078;-68
2021/04/17 03:27:46;;;;;;;5.90;5.25;;;;;;;7.56;58.78;101512.03;5074345;28;20113;-68
2021/04/17 03:30:15;;;;;;;3.80;3.38;;;;;;;7.73;56.88;101508.81;5074222;28;20044;-67
2021/04/17 03:32:41;;;;;;;4.03;3.63;;;;;;;7.41;58.53;101510.03;5072974;28;20482;-67
2021/04/17 03:35:10;;;;;;;5.20;3.25;;;;;;;7.66;56.43;101519.22;5074327;28;20030;-67
2021/04/17 03:37:36;;;;;;;3.40;3.10;;;;;;;7.34;59.22;101510.78;5073612;28;20024;-67
2021/04/17 03:40:04;;;;;;;4.30;3.65;;;;;;;7.90;57.57;101511.72;5073989;28;20023;-67
2021/04/17 03:42:29;;;;;;;5.15;3.25;;;;;;;7.89;58.34;101507.28;5072444;28;20090;-67
2021/04/17 03:44:54;;;;;;;3.00;2.63;;;;;;;7.76;58.53;101503.59;5074047;28;20024;-67
2021/04/17 03:47:20;;;;;;;4.55;3.17;;;;;;;7.79;58.82;101496.66;5073639;28;20024;-67
2021/04/17 03:49:45;;;;;;;3.97;2.92;;;;;;;7.36;59.67;101495.94;5071999;28;20032;-67
2021/04/17 03:52:11;;;;;;;3.72;2.78;;;;;;;7.74;58.92;101511.44;5053258;28;20447;-66
2021/04/17 03:54:37;;;;;;;3.65;2.70;;;;;;;7.53;58.36;101510.25;5045455;28;20503;-68
2021/04/17 03:57:02;;;;;;;3.50;3.08;;;;;;;7.52;58.90;101511.09;5087359;28;20067;-68
2021/04/17 03:59:27;;;;;;;4.45;2.70;;;;;;;7.41;59.88;101510.03;5073572;28;20036;-66
2021/04/17 04:01:53;;;;;;;4.15;3.00;;;;;;;7.31;61.24;101509.84;5077692;28;20027;-69
2021/04/17 04:04:18;;;;;;;2.67;2.47;;;;;;;7.14;63.32;101512.16;5075037;28;20523;-68
2021/04/17 04:06:43;;;;;;;3.13;2.70;;;;;;;7.87;60.72;101498.53;5072238;28;20486;-66
2021/04/17 04:09:09;;;;;;;3.22;2.92;;;;;;;7.25;62.87;101515.00;5071979;28;20024;-68
2021/04/17 04:11:34;;;;;;;6.05;3.35;;;;;;;7.26;61.46;101519.41;5073226;28;20043;-67
2021/04/17 04:13:59;;;;;;;5.18;3.30;;;;;;;6.93;63.73;101517.91;5073400;28;20032;-67
2021/04/17 04:16:25;;;;;;;5.10;3.40;;;;;;;7.02;63.19;101517.19;5073608;28;20032;-67
2021/04/17 04:18:50;;;;;;;4.30;3.40;;;;;;;7.19;63.07;101514.88;5072090;28;20028;-68
2021/04/17 04:21:15;;;;;;;3.88;3.30;;;;;;;7.03;63.87;101511.97;5050274;28;20513;-69
2021/04/17 04:23:40;;;;;;;5.05;3.88;;;;;;;7.19;63.03;101522.75;5073382;28;20024;-68
2021/04/17 04:26:06;;;;;;;6.95;3.72;;;;;;;7.52;61.38;101516.34;5077215;28;20039;-68
2021/04/17 04:28:31;;;;;;;6.38;3.53;;;;;;;7.79;60.82;101507.16;5068520;28;20023;-68
2021/04/17 04:30:56;;;;;;;4.53;3.30;;;;;;;7.56;60.27;101506.78;5070314;28;20403;-67
2021/04/17 04:33:22;;;;;;;4.80;4.35;;;;;;;7.78;59.81;101502.78;5072381;28;20052;-66
2021/04/17 04:35:49;;;;;;;6.63;3.63;;;;;;;8.05;59.90;101501.44;5053544;28;20032;-67
2021/04/17 04:38:14;;;;;;;5.05;4.13;;;;;;;7.65;60.87;101512.19;5066219;28;20099;-67
2021/04/17 04:40:39;;;;;;;4.30;3.90;;;;;;;7.28;61.58;101512.44;5069973;28;20051;-66
2021/04/17 04:43:04;;;;;;;4.85;4.18;;;;;;;7.29;61.98;101508.06;5072364;28;20024;-68
2021/04/17 04:45:31;;;;;;;6.50;4.07;;;;;;;8.13;59.81;101511.19;5073242;28;20036;-69
2021/04/17 04:47:56;;;;;;;5.35;4.03;;;;;;;8.20;59.88;101500.75;5071026;28;20035;-67
2021/04/17 04:50:22;;;;;;;5.10;3.97;;;;;;;7.82;59.23;101499.34;5071238;28;20024;-67
2021/04/17 04:52:48;;;;;;;5.38;3.75;;;;;;;8.42;58.39;101492.28;5072946;28;20016;-67
2021/04/17 04:55:13;;;;;;;6.75;3.92;;;;;;;8.02;58.15;101488.25;5072723;28;20035;-69
2021/04/17 04:57:38;;;;;;;6.60;3.97;;;;;;;8.11;58.39;101490.13;5073442;28;20043;-68
2021/04/17 05:00:05;;;;;;;6.68;3.88;;;;;;;7.95;58.12;101484.66;5072856;28;20028;-68
2021/04/17 05:02:30;;;;;;;6.68;4.32;;;;;;;8.45;58.13;101487.97;5072394;28;20039;-67
2021/04/17 05:04:56;;;;;;;4.57;4.05;;;;;;;8.24;59.43;101485.03;5072584;28;20294;-67
2021/04/17 05:07:21;;;;;;;6.60;4.38;;;;;;;7.76;59.54;101480.84;5073191;28;20021;-67
2021/04/17 05:09:46;;;;;;;7.65;4.13;;;;;;;8.11;59.68;101489.25;5073232;28;20094;-69
2021/04/17 05:12:12;;;;;;;4.38;3.22;;;;;;;7.94;59.33;101479.38;5073763;28;20025;-68
2021/04/17 05:14:37;;;;;;;4.38;3.97;;;;;;;7.51;61.07;101471.69;5070406;28;20024;-68
2021/04/17 05:17:02;;;;;;;4.07;3.58;;;;;;;7.72;61.57;101486.03;5073103;28;20059;-69
2021/04/17 05:19:28;;;;;;;4.18;3.78;;;;;;;7.43;61.64;101479.44;5072690;28;20028;-68
2021/04/17 05:21:53;;;;;;;5.22;3.78;;;;;;;7.39;62.31;101473.25;5054627;28;20110;-66
2021/04/17 05:24:18;;;;;;;4.10;3.70;;;;;;;7.57;62.17;101483.19;5070684;28;20027;-67
2021/04/17 05:26:44;;;;;;;5.50;4.00;;;;;;;7.81;61.81;101481.78;5070410;28;20051;-67
2021/04/17 05:29:09;;;;;;;6.18;4.10;;;;;;;7.51;63.57;101476.94;5058501;28;20028;-67
2021/04/17 05:31:37;;;;;;;5.28;4.13;;;;;;;7.70;63.03;101465.88;5065000;28;20108;-67
2021/04/17 05:34:05;;;;;;;4.90;3.70;;;;;;;7.32;63.11;101477.53;5070590;28;20128;-68
2021/04/17 05:36:32;;;;;;;5.05;3.78;;;;;;;7.41;63.19;101470.66;5045996;28;20036;-66
2021/04/17 05:38:57;;;;;;;6.63;3.55;;;;;;;7.90;60.73;101467.06;5070057;28;20030;-68
2021/04/17 05:41:24;;;;;;;4.30;3.47;;;;;;;8.09;60.02;101455.06;5069818;28;20028;-68
2021/04/17 05:43:50;;;;;;;3.38;2.90;;;;;;;7.76;61.69;101457.22;5070126;28;20025;-68
2021/04/17 05:46:15;;;;;;;7.97;3.85;;;;;;;7.81;61.40;101462.53;5069606;28;20085;-66
2021/04/17 05:48:40;;;;;;;7.00;3.80;;;;;;;8.37;60.91;101455.41;5048140;28;20025;-68
2021/04/17 05:51:05;;;;;;;6.15;3.78;;;;;;;8.51;60.84;101458.22;5068832;28;20028;-66
2021/04/17 05:53:31;;;;;;;5.90;3.95;;;;;;;8.01;61.23;101451.44;5070044;28;20031;-67
2021/04/17 05:55:56;;;;;;;5.68;3.97;;;;;;;7.74;61.43;101452.81;5067945;28;20434;-67
2021/04/17 05:58:21;;;;;;;5.68;4.28;;;;;;;8.40;60.77;101444.06;5053448;28;20029;-67
2021/04/17 06:00:47;;;;;;;4.53;4.00;;;;;;;8.28;60.24;101456.19;5068936;28;20020;-68
2021/04/17 06:03:12;;;;;;;7.07;4.03;;;;;;;8.70;58.65;101447.94;5071469;28;20028;-69
2021/04/17 06:05:37;;;;;;;7.82;5.05;;;;;;;8.32;59.35;101458.00;5071333;28;20029;-68
2021/04/17 06:08:04;;;;;;;5.95;4.40;;;;;;;9.01;59.40;101453.53;5067897;28;20020;-66
2021/04/17 06:10:29;;;;;;;5.85;4.63;;;;;;;9.20;57.38;101457.22;5069676;28;20028;-68
2021/04/17 06:12:54;;;;;;;3.85;3.55;;;;;;;8.87;57.84;101442.00;5069560;28;20020;-67
2021/04/17 06:15:20;;;;;;;6.93;3.80;;;;;;;9.03;57.52;101445.69;5051330;28;20570;-66
2021/04/17 06:17:45;;;;;;;4.15;3.35;;;;;;;8.80;58.38;101449.81;5070991;28;20067;-67
2021/04/17 06:20:11;;;;;;;10.32;4.00;;;;;;;8.84;57.54;101443.72;5071528;28;20032;-69
2021/04/17 06:22:36;;;;;;;7.97;4.55;;;;;;;8.53;58.42;101451.25;5069574;28;21890;-68
2021/04/17 06:25:04;;;;;;;8.93;4.45;;;;;;;8.64;59.60;101440.00;5071267;28;20472;-68
2021/04/17 06:27:29;;;;;;;8.18;4.88;;;;;;;8.52;57.96;101438.97;5068810;28;20028;-69
2021/04/17 06:29:55;;;;;;;5.75;4.20;;;;;;;8.38;58.58;101430.00;5071351;28;20074;-69
2021/04/17 06:32:20;;;;;;;6.32;4.15;;;;;;;8.39;59.05;101432.66;5071245;28;20039;-69
2021/04/17 06:34:45;;;;;;;8.60;4.88;;;;;;;8.75;59.08;101424.31;5071310;28;20020;-69
2021/04/17 06:37:11;;;;;;;8.25;4.72;;;;;;;8.91;58.25;101430.63;5070144;28;20090;-69
2021/04/17 06:39:36;;;;;;;8.90;5.35;;;;;;;8.94;58.10;101423.63;5072112;28;20036;-70
2021/04/17 06:42:03;;;;;;;4.35;3.95;;;;;;;9.07;59.15;101424.63;5073777;28;20493;-69
2021/04/17 06:44:31;;;;;;;4.07;3.67;;;;;;;9.55;56.77;101429.44;5058392;28;20033;-70
2021/04/17 06:46:56;;;;;;;5.90;3.97;;;;;;;8.86;58.18;101422.69;5074102;28;20025;-69
2021/04/17 06:49:23;;;;;;;6.30;3.97;;;;;;;9.20;56.92;101419.47;5073680;28;20028;-69
2021/04/17 06:51:49;;;;;;;5.28;3.78;;;;;;;9.06;57.02;101422.88;5055518;28;20033;-69
2021/04/17 06:54:19;;;;;;;7.32;3.65;;;;;;;8.88;57.72;101418.34;5073827;28;20480;-68
2021/04/17 06:56:45;;;;;;;7.47;3.83;;;;;;;8.90;57.67;101413.09;5073800;28;20107;-68
2021/04/17 06:59:10;;;;;;;6.30;4.10;;;;;;;8.64;58.91;101406.66;5073297;28;20123;-68
2021/04/17 07:01:39;;;;;;;7.30;4.38;;;;;;;9.01;57.35;101419.34;5074157;28;20028;-68
2021/04/17 07:04:05;;;;;;;5.57;5.05;;;;;;;9.08;57.93;101407.13;5073287;28;20025;-68
2021/04/17 07:06:30;;;;;;;7.75;4.55;;;;;;;9.04;58.38;101402.69;5075058;28;20031;-68
2021/04/17 07:08:55;;;;;;;10.82;6.30;;;;;;;9.55;57.04;101408.38;5073433;28;20472;-69
2021/04/17 07:11:21;;;;;;;9.57;7.63;;;;;;;9.50;57.58;101402.16;5073048;28;20047;-70
2021/04/17 07:14:06;;;;;;;8.20;7.32;;;;;;;8.97;57.93;101394.72;5072962;28;20384;-70
2021/04/17 07:16:32;;;;;;;7.38;4.90;;;;;;;9.55;55.70;101392.56;5068291;28;20036;-70
2021/04/17 07:18:57;;;;;;;6.47;4.47;;;;;;;9.55;56.60;101402.22;5072336;28;20579;-69
2021/04/17 07:21:26;;;;;;;6.50;4.35;;;;;;;9.55;57.71;101400.47;5074225;28;20388;-71
2021/04/17 07:23:51;;;;;;;8.40;4.70;;;;;;;9.34;58.31;101388.88;5073242;28;20504;-71
2021/04/17 07:26:18;;;;;;;11.98;4.60;;;;;;;9.62;58.10;101396.13;5072767;28;20046;-71
2021/04/17 07:28:59;;;;;;;12.85;6.40;;;;;;;9.56;56.80;101394.31;5069121;28;20059;-69
2021/04/17 07:31:27;;;;;;;7.35;4.50;;;;;;;9.92;55.57;101397.16;5072087;28;20078;-69
2021/04/17 07:33:53;;;;;;;4.40;4.00;;;;;;;10.31;54.32;101396.47;5070976;28;20028;-72
2021/04/17 07:36:18;;;;;;;7.95;4.05;;;;;;;10.67;53.90;101383.41;5072593;28;20047;-72
2021/04/17 07:38:45;;;;;;;7.20;4.88;;;;;;;10.57;54.19;101383.38;5043189;28;20554;-72
2021/04/17 07:41:12;;;;;;;5.97;4.68;;;;;;;10.99;53.88;101385.19;5071436;28;20407;-71
2021/04/17 07:43:50;;;;;;;5.28;4.05;;;;;;;10.76;53.13;101383.41;5072293;28;20063;-69
2021/04/17 07:46:16;;;;;;;7.60;4.30;;;;;;;10.99;52.24;101385.19;5064695;28;20032;-70
2021/04/17 09:48:42;;;;;;;6.88;4.38;;;;;;;9.41;55.91;101365.25;5105687;27;20399;-65
2021/04/17 09:51:21;;;;;;;6.20;4.72;;;;;;;10.31;52.50;101363.06;5103816;28;20028;-67
2021/04/17 09:53:48;;;;;;;7.90;5.50;;;;;;;10.44;52.54;101363.09;5089325;28;20031;-67
2021/04/17 09:56:29;;;;;;;9.25;7.35;;;;;;;11.11;50.82;101368.50;5085102;28;20032;-67
2021/04/17 09:58:56;;;;;;;7.05;5.43;;;;;;;11.38;49.96;101359.69;5098753;28;20391;-66
2021/04/17 10:01:21;;;;;;;4.72;4.22;;;;;;;11.86;48.86;101361.31;5085385;28;20024;-66
2021/04/17 10:03:54;;;;;;;5.88;3.60;;;;;;;12.54;46.21;101352.19;5096731;28;20039;-67
2021/04/17 10:06:31;;;;;;;5.05;3.60;;;;;;;12.06;47.48;101348.06;5096262;28;20020;-67
2021/04/17 10:09:16;;;;;;;5.60;3.95;;;;;;;12.37;46.59;101352.28;5096675;28;20059;-66
2021/04/17 10:11:43;;;;;;;3.55;3.25;;;;;;;12.51;46.49;101351.34;5088296;28;20075;-65
2021/04/17 10:14:11;;;;;;;8.02;4.13;;;;;;;12.66;46.23;101348.59;5096430;28;21268;-66
2021/04/17 10:16:42;;;;;;;4.95;3.83;;;;;;;12.88;46.61;101342.25;5088315;28;20058;-65
2021/04/17 10:19:09;;;;;;;5.75;4.50;;;;;;;12.93;46.21;101345.72;5090658;28;20032;-65
2021/04/17 10:21:35;;;;;;;5.45;4.35;;;;;;;12.66;47.05;101345.94;5095286;28;20503;-67
2021/04/17 10:24:27;;;;;;;6.82;4.10;;;;;;;12.82;46.54;101349.38;5096551;28;20098;-66
2021/04/17 10:27:10;;;;;;;;;;;;;;;12.80;45.67;101334.34;5098151;28;20776;-67
2021/04/17 10:29:49;;;;;;;7.35;4.13;;;;;;;12.41;46.46;101354.03;5097024;28;19926;-66
2021/04/17 10:32:21;;;;;;;4.60;4.10;;;;;;;12.12;47.18;101357.72;5088072;28;20043;-66
2021/04/17 10:35:04;;;;;;;7.53;4.72;;;;;;;11.88;46.78;101356.91;5094865;28;20115;-65
2021/04/17 10:37:39;;;;;;;9.27;4.85;;;;;;;12.27;46.04;101350.59;5099444;28;20479;-66
2021/04/17 10:40:10;;;;;;;7.30;4.80;;;;;;;12.18;46.57;101356.81;5092668;28;20044;-66
2021/04/17 10:42:46;;;;;;;;;;;;;;;11.74;47.25;101356.06;5094266;28;20039;-66
2021/04/17 10:45:14;;;;;;;7.13;4.78;;;;;;;12.22;46.56;101347.97;5088062;28;19935;-66
2021/04/17 10:47:39;;;;;;;7.00;4.80;;;;;;;12.27;46.59;101347.97;5100677;28;20444;-66
2021/04/17 10:50:19;;;;;;;6.63;5.50;;;;;;;12.11;47.33;101345.41;5089452;28;20111;-69
2021/04/17 10:52:55;;;;;;;4.97;4.13;;;;;;;12.72;46.88;101341.47;5103053;28;20414;-67
2021/04/17 10:55:35;;;;;;;5.97;4.38;;;;;;;12.35;47.37;101348.78;5087693;28;20534;-66
2021/04/17 10:58:00;;;;;;;7.65;5.65;;;;;;;11.65;48.38;101341.13;5088793;28;20070;-66
2021/04/17 11:00:34;;;;;;;8.20;5.03;;;;;;;12.68;46.39;101344.16;5085820;28;20403;-66
2021/04/17 11:03:00;;;;;;;6.60;4.72;;;;;;;12.87;46.09;101341.38;5057507;28;20024;-66
2021/04/17 11:05:31;;;;;;;9.45;4.65;;;;;;;12.70;45.66;101342.38;5073178;28;20045;-66
2021/04/17 11:07:57;;;;;;;9.20;4.70;;;;;;;12.77;46.10;101339.69;5073315;28;20016;-66
2021/04/17 11:10:29;;;;;;;6.75;4.50;;;;;;;12.45;45.87;101334.59;5073258;28;20073;-66
2021/04/17 11:12:54;;;;;;;7.70;5.30;;;;;;;12.64;46.65;101345.06;5073124;28;20031;-66
2021/04/17 11:15:22;;;;;;;8.18;5.18;;;;;;;12.84;46.45;101346.72;5074438;28;20020;-66
2021/04/17 11:18:10;;;;;;;6.20;5.32;;;;;;;12.93;45.87;101338.69;5085993;28;20201;-66
2021/04/17 11:20:50;;;;;;;12.35;8.20;;;;;;;13.66;44.50;101330.94;5092366;28;20106;-65
2021/04/17 11:23:32;;;;;;;13.85;10.23;;;;;;;13.92;43.22;101337.69;5094389;28;20383;-66
2021/04/17 11:25:58;;;;;;;5.30;4.80;;;;;;;14.30;41.37;101332.81;5093193;28;20020;-66
2021/04/17 11:28:24;;;;;;;5.68;4.72;;;;;;;13.97;43.18;101342.06;5076761;28;20506;-66
2021/04/17 11:30:50;;;;;;;5.07;4.63;;;;;;;14.17;42.86;101335.59;5072851;28;20064;-66
2021/04/17 11:33:16;;;;;;;7.95;4.25;;;;;;;14.24;41.91;101331.97;5072774;28;20032;-66
2021/04/17 11:35:41;;;;;;;7.00;4.88;;;;;;;14.43;42.00;101333.47;5072697;28;20020;-66
2021/04/17 11:38:07;;;;;;;11.05;8.48;;;;;;;14.57;42.00;101330.66;5087987;28;20016;-66
2021/04/17 11:40:32;;;;;;;6.95;5.15;;;;;;;14.47;41.88;101328.09;5093202;28;20040;-67
2021/04/17 11:42:57;;;;;;;5.47;4.82;;;;;;;14.54;41.44;101330.69;5093803;28;20046;-66
2021/04/17 11:45:22;;;;;;;6.43;4.63;;;;;;;14.56;42.53;101334.19;5093928;28;20032;-66
2021/04/17 11:47:48;;;;;;;5.97;4.40;;;;;;;14.24;41.83;101323.16;5082045;28;20051;-67
2021/04/17 11:50:13;;;;;;;7.35;4.70;;;;;;;14.56;42.17;101329.75;5072430;28;20037;-66
2021/04/17 11:52:38;;;;;;;4.97;4.43;;;;;;;14.77;41.23;101325.03;5089079;28;20023;-66
2021/04/17 11:55:04;;;;;;;6.47;5.03;;;;;;;15.22;40.65;101324.28;5092291;28;20368;-66
2021/04/17 11:57:30;;;;;;;5.00;4.38;;;;;;;15.70;40.70;101324.28;5084749;28;20031;-66
2021/04/17 11:59:55;;;;;;;5.55;4.38;;;;;;;14.61;42.27;101329.69;5072123;28;20490;-66
2021/04/17 12:02:20;;;;;;;7.65;4.68;;;;;;;15.07;42.14;101329.88;5073253;28;20033;-66
2021/04/17 12:04:45;;;;;;;6.32;4.68;;;;;;;15.60;40.62;101326.22;5072077;28;20559;-66
2021/04/17 12:07:11;;;;;;;4.32;3.90;;;;;;;15.64;40.46;101334.09;5078799;28;20041;-66
2021/04/17 12:09:36;;;;;;;9.55;4.25;;;;;;;14.67;41.44;101337.53;5093090;28;20032;-66
2021/04/17 12:12:02;;;;;;;6.97;4.30;;;;;;;15.16;40.94;101335.00;5089056;28;20024;-66
2021/04/17 12:14:27;;;;;;;5.32;4.30;;;;;;;15.17;41.30;101326.13;5079911;28;20028;-67
2021/04/17 12:16:52;;;;;;;8.90;5.22;;;;;;;15.16;40.40;101340.31;5088248;28;20012;-67
2021/04/17 12:19:17;;;;;;;6.95;4.45;;;;;;;15.71;39.80;101340.16;5082762;28;20024;-67
2021/04/17 12:21:43;;;;;;;7.13;5.22;;;;;;;15.57;38.30;101339.59;5077015;28;20031;-67
2021/04/17 12:24:08;;;;;;;4.35;3.95;;;;;;;14.34;40.82;101347.78;5070781;28;20496;-68
2021/04/17 12:26:33;;;;;;;7.85;4.60;;;;;;;14.45;41.44;101348.50;5069030;28;20036;-67
2021/04/17 12:28:59;;;;;;;6.90;5.43;;;;;;;15.47;40.01;101342.41;5071464;28;20060;-67
2021/04/17 12:31:25;;;;;;;7.35;5.22;;;;;;;14.83;40.94;101332.00;5084639;28;20141;-65
2021/04/17 12:33:50;;;;;;;8.32;5.45;;;;;;;14.32;41.55;101339.84;5075712;28;20539;-66
2021/04/17 12:36:16;;;;;;;6.22;4.10;;;;;;;14.96;41.10;101332.69;5085764;28;20036;-67
2021/04/17 12:38:41;;;;;;;7.97;4.00;;;;;;;14.83;41.29;101326.69;5082201;28;20036;-67
2021/04/17 12:41:06;;;;;;;4.93;4.50;;;;;;;15.30;40.82;101321.47;5079449;28;20029;-66
2021/04/17 12:43:32;;;;;;;4.82;3.80;;;;;;;15.32;40.07;101329.41;5075534;28;20459;-66
2021/04/17 12:45:57;;;;;;;7.15;4.07;;;;;;;15.46;40.01;101327.38;5079258;28;20107;-66
2021/04/17 12:48:22;;;;;;;6.72;4.05;;;;;;;15.49;40.26;101327.31;5086117;28;20055;-67
2021/04/17 12:50:49;;;;;;;7.00;4.75;;;;;;;15.07;40.05;101321.91;5078141;28;20070;-66
2021/04/17 12:53:15;;;;;;;7.20;4.93;;;;;;;14.61;41.96;101327.03;5071190;28;20372;-67
2021/04/17 12:55:40;;;;;;;9.77;5.50;;;;;;;15.82;39.44;101323.13;5083030;28;20027;-66
2021/04/17 12:58:05;;;;;;;5.30;4.80;;;;;;;15.89;39.96;101324.75;5086330;28;20028;-66
2021/04/17 13:00:31;;;;;;;4.95;4.45;;;;;;;16.17;40.28;101318.88;5074754;28;20036;-67
2021/04/17 13:02:57;;;;;;;7.35;4.85;;;;;;;16.00;40.00;101317.47;5081467;28;20667;-67
2021/04/17 13:05:22;;;;;;;9.57;5.03;;;;;;;15.69;40.87;101312.75;5073639;28;20054;-67
2021/04/17 13:07:48;;;;;;;7.60;4.72;;;;;;;16.37;39.81;101309.56;5081096;28;20467;-67
2021/04/17 13:10:13;;;;;;;5.28;4.25;;;;;;;16.03;40.06;101312.06;5082716;28;20028;-67
2021/04/17 13:12:38;;;;;;;5.68;3.90;;;;;;;16.83;39.11;101310.22;5080363;28;20090;-67
2021/04/17 13:15:04;;;;;;;7.10;4.70;;;;;;;16.53;38.55;101304.75;5087945;28;20077;-67
2021/04/17 13:17:30;;;;;;;6.55;4.35;;;;;;;16.41;39.21;101305.94;5076537;28;20021;-66
2021/04/17 13:19:55;;;;;;;5.15;3.70;;;;;;;15.91;40.15;101307.00;5086775;28;20034;-67
2021/04/17 13:22:20;;;;;;;5.93;4.15;;;;;;;15.41;41.40;101305.34;5089625;28;20023;-66
2021/04/17 13:24:46;;;;;;;7.97;4.57;;;;;;;16.54;39.68;101291.41;5078297;28;20120;-66
2021/04/17 13:27:11;;;;;;;5.93;4.30;;;;;;;16.15;39.88;101299.41;5088034;28;20482;-66
2021/04/17 13:29:36;;;;;;;5.88;4.50;;;;;;;16.03;40.76;101290.78;5076699;28;20023;-66
2021/04/17 13:32:02;;;;;;;7.13;4.45;;;;;;;16.16;40.14;101293.16;5080389;28;20479;-67